Flournoy, California
Current Conditions -  °F | °C
As of 11:54 AM on Friday 19 Dec 2014 (Local Time) from KRBL Reporting Station
Overcast Overcast  
Wind Chill: 53°   Ceiling: 1300
Heat Index: 53°   Visibility: 10mi
Dew Point: 48°   Wind: 18mph
Humidity: 83%   Direction: 170°S
Pressure: 30.13"   Gusts: 26mph
Location:  39.9°N, 122.51°W
Report Text: KRBL 191954Z AUTO 17016G23KT 10SM OVC013 12/09 A3013 RMK AO2 SLP202 T01170089
Loading
Personal Weather Stations






























Interactive Weather Map New forecast layout! Learn more

10-Day Weather Forecast

Advertisements
Track Severe Weather on mobile